Time;durP1;ratioP1;P1;durP2;ratioP2;P2;SDS_P1;SDS_P2;PMS_P1;PMS_P2;Temp;Humidity;BMP_temperature;BMP_pressure;BME280_temperature;BME280_humidity;BME280_pressure;Samples;Min_cycle;Max_cycle;Signal;HPM_P1;HPM_P2
2022/02/23 00:01:09;;;;;;;5.32;1.15;;;23.60;99.90;;;;;;5031468;28;20474;-65
2022/02/23 00:03:36;;;;;;;5.25;1.05;;;23.50;99.90;;;;;;5034849;28;20076;-65
2022/02/23 00:06:04;;;;;;;6.95;0.65;;;23.40;99.90;;;;;;5030764;28;20034;-65
2022/02/23 00:08:31;;;;;;;3.40;0.50;;;23.20;99.90;;;;;;5038254;28;20472;-65
2022/02/23 00:10:59;;;;;;;4.57;0.98;;;23.10;99.90;;;;;;5038427;28;20097;-65
2022/02/23 00:13:28;;;;;;;9.57;1.63;;;23.00;99.90;;;;;;5041165;28;20072;-64
2022/02/23 00:15:56;;;;;;;5.65;1.08;;;22.60;99.90;;;;;;5036014;28;20029;-64
2022/02/23 00:18:23;;;;;;;6.43;1.58;;;22.30;99.90;;;;;;5036973;28;20115;-63
2022/02/23 00:20:51;;;;;;;3.63;0.70;;;22.20;99.90;;;;;;5035672;28;20028;-66
2022/02/23 00:23:21;;;;;;;7.90;1.13;;;22.10;99.90;;;;;;5017140;28;20116;-65
2022/02/23 00:25:48;;;;;;;5.88;1.17;;;22.00;99.90;;;;;;5017187;28;20419;-65
2022/02/23 00:28:16;;;;;;;8.85;1.45;;;21.90;99.90;;;;;;5031628;28;20049;-64
2022/02/23 00:30:43;;;;;;;7.63;0.95;;;21.70;99.90;;;;;;5022821;28;20037;-64
2022/02/23 00:33:18;;;;;;;8.60;1.45;;;21.70;99.90;;;;;;5037226;28;20504;-65
2022/02/23 00:35:48;;;;;;;6.57;1.00;;;21.70;99.90;;;;;;5039346;28;20033;-64
2022/02/23 00:38:15;;;;;;;4.65;0.63;;;21.70;99.90;;;;;;5020041;28;20056;-64
2022/02/23 00:40:42;;;;;;;6.10;0.80;;;21.80;99.90;;;;;;5019639;28;20018;-64
2022/02/23 00:43:10;;;;;;;7.35;0.95;;;21.90;99.90;;;;;;5043946;28;20032;-64
2022/02/23 00:45:37;;;;;;;8.73;1.42;;;21.90;99.90;;;;;;5044071;28;20044;-64
2022/02/23 00:48:05;;;;;;;4.78;0.70;;;21.90;99.90;;;;;;5044587;28;20034;-64
2022/02/23 00:50:32;;;;;;;4.03;0.75;;;21.80;99.90;;;;;;5039664;28;20045;-64
2022/02/23 00:52:59;;;;;;;3.38;0.50;;;21.90;99.90;;;;;;5039069;28;20051;-64
2022/02/23 00:55:26;;;;;;;4.90;0.98;;;21.90;99.90;;;;;;5035698;28;20394;-64
2022/02/23 00:57:54;;;;;;;4.82;1.50;;;22.00;99.90;;;;;;5040036;28;20085;-64
2022/02/23 01:00:21;;;;;;;5.80;1.30;;;22.30;99.90;;;;;;5023824;28;20111;-64
2022/02/23 01:02:48;;;;;;;10.75;1.48;;;22.30;99.90;;;;;;5045227;28;20017;-64
2022/02/23 01:05:16;;;;;;;7.18;0.90;;;22.40;99.90;;;;;;5019654;28;20040;-64
2022/02/23 01:07:43;;;;;;;8.70;2.00;;;22.50;99.90;;;;;;5036628;28;20022;-64
2022/02/23 01:10:11;;;;;;;7.30;1.17;;;22.70;99.90;;;;;;5040950;28;20026;-64
2022/02/23 01:12:38;;;;;;;6.68;1.80;;;22.90;99.90;;;;;;5037758;28;20042;-64
2022/02/23 01:15:07;;;;;;;6.80;1.13;;;22.90;99.90;;;;;;5039544;28;20034;-64
2022/02/23 01:17:34;;;;;;;7.72;1.10;;;22.90;99.90;;;;;;5034935;28;20105;-64
2022/02/23 01:20:01;;;;;;;5.93;0.77;;;23.10;99.90;;;;;;5034193;28;20113;-64
2022/02/23 01:22:29;;;;;;;4.68;0.80;;;23.10;99.90;;;;;;5032352;28;20032;-64
2022/02/23 01:24:56;;;;;;;2.58;0.93;;;23.00;99.90;;;;;;5051148;28;20166;-64
2022/02/23 01:27:23;;;;;;;5.57;0.93;;;23.10;99.90;;;;;;5036875;28;20055;-64
2022/02/23 01:29:51;;;;;;;6.32;0.90;;;23.10;99.90;;;;;;5049008;28;20029;-64
2022/02/23 01:32:18;;;;;;;5.13;0.70;;;23.20;99.90;;;;;;5025293;28;20038;-64
2022/02/23 01:34:45;;;;;;;4.55;0.90;;;23.20;99.90;;;;;;5028968;28;20031;-64
2022/02/23 01:37:13;;;;;;;5.00;0.80;;;23.30;99.90;;;;;;5018166;28;20113;-64
2022/02/23 01:39:41;;;;;;;9.40;1.02;;;23.40;99.90;;;;;;5010733;28;20032;-64
2022/02/23 01:42:08;;;;;;;4.82;0.60;;;23.40;99.90;;;;;;5024327;28;20034;-64
2022/02/23 01:44:36;;;;;;;6.80;0.98;;;23.50;99.90;;;;;;5027196;28;20029;-64
2022/02/23 01:47:03;;;;;;;7.60;1.13;;;23.60;99.90;;;;;;5034361;28;20493;-64
2022/02/23 01:49:30;;;;;;;10.23;1.77;;;23.50;99.90;;;;;;5035211;28;20026;-65
2022/02/23 01:51:58;;;;;;;6.18;0.82;;;23.40;99.90;;;;;;5038277;28;20116;-64
2022/02/23 01:54:25;;;;;;;10.05;1.35;;;23.40;99.90;;;;;;5034890;28;20045;-64
2022/02/23 01:56:52;;;;;;;5.97;1.27;;;23.40;99.90;;;;;;5013520;28;20063;-64
2022/02/23 01:59:20;;;;;;;10.77;1.63;;;23.40;99.90;;;;;;5007298;28;20034;-64
2022/02/23 02:01:47;;;;;;;5.70;1.30;;;23.30;99.90;;;;;;5023488;28;20045;-64
2022/02/23 02:04:14;;;;;;;10.40;1.40;;;23.40;99.90;;;;;;5034670;28;20038;-64
2022/02/23 02:06:42;;;;;;;7.25;1.35;;;23.40;99.90;;;;;;5030665;28;20703;-64
2022/02/23 02:09:09;;;;;;;12.00;1.77;;;23.30;99.90;;;;;;5033629;28;20036;-64
2022/02/23 02:11:37;;;;;;;9.20;1.00;;;23.20;99.90;;;;;;5034073;28;20076;-64
2022/02/23 02:14:04;;;;;;;8.70;1.08;;;23.20;99.90;;;;;;5034779;28;20040;-64
2022/02/23 02:16:31;;;;;;;5.68;0.93;;;23.20;99.90;;;;;;5036120;28;20109;-64
2022/02/23 02:18:59;;;;;;;9.73;1.45;;;23.30;99.90;;;;;;5034790;28;20056;-64
2022/02/23 02:21:55;;;;;;;5.72;1.00;;;23.20;99.90;;;;;;5034826;28;20052;-64
2022/02/23 02:24:24;;;;;;;7.65;1.67;;;23.20;99.90;;;;;;5034500;28;20037;-64
2022/02/23 02:26:52;;;;;;;10.13;1.45;;;23.20;99.90;;;;;;5038779;28;20382;-64
2022/02/23 02:29:20;;;;;;;6.65;0.93;;;23.20;99.90;;;;;;5044207;28;20036;-65
2022/02/23 02:31:48;;;;;;;6.05;1.20;;;23.20;99.90;;;;;;5022542;28;20092;-64
2022/02/23 02:34:16;;;;;;;7.03;1.20;;;23.30;99.90;;;;;;5054094;28;20033;-64
2022/02/23 02:36:44;;;;;;;10.15;1.60;;;23.60;99.90;;;;;;5038427;28;20481;-65
2022/02/23 02:39:11;;;;;;;6.45;1.70;;;23.80;99.90;;;;;;5034774;28;20033;-65
2022/02/23 02:41:38;;;;;;;6.38;1.25;;;24.00;99.90;;;;;;5032771;28;20026;-64
2022/02/23 02:44:06;;;;;;;6.07;1.30;;;24.10;99.90;;;;;;5030882;28;20029;-64
2022/02/23 02:46:34;;;;;;;6.30;1.30;;;24.50;99.90;;;;;;5015881;28;20026;-64
2022/02/23 02:49:01;;;;;;;9.13;1.33;;;24.70;99.90;;;;;;5034312;28;20025;-64
2022/02/23 02:51:29;;;;;;;7.63;1.13;;;24.80;99.90;;;;;;5035299;28;20389;-64
2022/02/23 02:53:56;;;;;;;4.65;1.20;;;24.90;99.90;;;;;;5038685;28;20061;-64
2022/02/23 02:56:23;;;;;;;5.95;1.00;;;24.90;99.90;;;;;;5034124;28;20405;-64
2022/02/23 02:58:54;;;;;;;8.73;1.45;;;25.00;99.90;;;;;;5034557;28;20101;-65
2022/02/23 03:01:24;;;;;;;8.38;1.10;;;24.80;99.90;;;;;;5031800;28;20034;-65
2022/02/23 03:03:51;;;;;;;5.15;0.93;;;24.70;99.90;;;;;;5034385;28;20507;-65
2022/02/23 03:06:19;;;;;;;4.30;0.98;;;24.60;99.90;;;;;;5034770;28;20037;-65
2022/02/23 03:08:48;;;;;;;5.47;0.95;;;24.50;99.90;;;;;;5035873;28;20161;-65
2022/02/23 03:11:15;;;;;;;7.43;1.20;;;24.40;99.90;;;;;;5041680;28;20109;-65
2022/02/23 03:13:43;;;;;;;7.32;1.08;;;24.40;99.90;;;;;;5034471;28;20096;-65
2022/02/23 03:16:12;;;;;;;6.25;1.20;;;24.30;99.90;;;;;;5029201;28;20064;-65
2022/02/23 03:18:40;;;;;;;9.30;1.20;;;24.10;99.90;;;;;;5029786;28;20022;-64
2022/02/23 03:21:08;;;;;;;8.30;0.98;;;23.90;99.90;;;;;;5032214;28;20490;-65
2022/02/23 03:23:37;;;;;;;9.02;1.80;;;23.80;99.90;;;;;;5032008;28;20112;-65
2022/02/23 03:26:05;;;;;;;12.00;1.50;;;23.90;99.90;;;;;;5031313;28;20054;-66
2022/02/23 03:28:32;;;;;;;8.95;1.88;;;23.80;99.90;;;;;;5036363;28;20451;-67
2022/02/23 03:30:59;;;;;;;9.10;1.60;;;23.90;99.90;;;;;;5031071;28;20499;-67
2022/02/23 03:33:27;;;;;;;9.30;1.90;;;23.80;99.90;;;;;;5032226;28;20092;-67
2022/02/23 03:35:54;;;;;;;11.57;1.83;;;23.70;99.90;;;;;;5027831;28;20022;-67
2022/02/23 03:38:21;;;;;;;7.97;1.27;;;23.80;99.90;;;;;;5030841;28;20051;-67
2022/02/23 03:40:48;;;;;;;13.23;2.50;;;23.80;99.90;;;;;;5027025;28;20385;-68
2022/02/23 03:43:17;;;;;;;5.80;0.90;;;23.60;99.90;;;;;;5033052;28;20025;-68
2022/02/23 03:45:47;;;;;;;7.63;1.35;;;23.20;99.90;;;;;;5031033;28;20017;-68
2022/02/23 03:48:15;;;;;;;8.80;1.50;;;23.20;99.90;;;;;;5028308;28;20494;-68
2022/02/23 03:50:42;;;;;;;10.70;1.27;;;23.30;99.90;;;;;;5029741;28;20031;-69
2022/02/23 03:53:09;;;;;;;6.93;0.82;;;23.40;99.90;;;;;;5028946;28;20025;-69
2022/02/23 03:55:36;;;;;;;9.93;1.58;;;23.50;99.90;;;;;;5013443;28;20140;-68
2022/02/23 03:58:04;;;;;;;4.82;1.08;;;23.50;99.90;;;;;;5031789;28;20030;-69
2022/02/23 04:00:31;;;;;;;4.47;0.82;;;23.50;99.90;;;;;;5032438;28;20046;-67
2022/02/23 04:02:58;;;;;;;5.38;0.95;;;23.50;99.90;;;;;;5030138;28;20034;-67
2022/02/23 04:05:25;;;;;;;4.35;1.10;;;23.60;99.90;;;;;;5026966;28;20109;-68
2022/02/23 04:07:53;;;;;;;3.03;0.75;;;23.60;99.90;;;;;;5031068;28;20083;-68
2022/02/23 04:10:21;;;;;;;5.25;0.77;;;23.60;99.90;;;;;;5021459;28;20034;-67
2022/02/23 04:12:48;;;;;;;3.90;0.82;;;23.70;99.90;;;;;;5012724;28;20037;-68
2022/02/23 04:15:15;;;;;;;2.53;0.40;;;23.70;99.90;;;;;;5028933;28;20393;-67
2022/02/23 04:17:43;;;;;;;4.25;0.95;;;23.80;99.90;;;;;;5041265;28;20025;-67
2022/02/23 04:20:10;;;;;;;3.97;0.63;;;23.90;99.90;;;;;;5028166;28;20052;-68
2022/02/23 04:22:39;;;;;;;7.75;0.95;;;24.10;99.90;;;;;;5027278;28;20030;-68
2022/02/23 04:25:07;;;;;;;2.95;0.77;;;24.10;99.90;;;;;;5027108;28;20493;-68
2022/02/23 04:27:34;;;;;;;7.07;1.00;;;24.10;99.90;;;;;;5021169;28;20025;-67
2022/02/23 04:30:02;;;;;;;10.70;0.95;;;24.20;99.90;;;;;;5013588;28;20026;-67
2022/02/23 04:32:29;;;;;;;7.78;0.80;;;24.20;99.90;;;;;;5030182;28;20021;-67
2022/02/23 04:34:56;;;;;;;3.55;0.77;;;24.30;99.90;;;;;;5031788;28;20512;-67
2022/02/23 04:37:25;;;;;;;6.68;0.60;;;24.50;99.90;;;;;;5030206;28;20496;-67
2022/02/23 04:39:52;;;;;;;4.40;0.80;;;24.70;99.90;;;;;;5032170;28;20180;-67
2022/02/23 04:42:19;;;;;;;5.80;0.85;;;24.80;99.90;;;;;;5029278;28;20029;-67
2022/02/23 04:44:47;;;;;;;4.55;0.73;;;24.80;99.90;;;;;;5031566;28;20523;-67
2022/02/23 04:47:15;;;;;;;4.63;0.50;;;24.80;99.90;;;;;;5031649;28;20502;-67
2022/02/23 04:49:42;;;;;;;7.05;0.85;;;24.60;99.90;;;;;;5031380;28;20018;-67
2022/02/23 04:52:09;;;;;;;5.75;0.80;;;24.50;99.90;;;;;;5024041;28;20037;-67
2022/02/23 04:54:38;;;;;;;9.93;1.00;;;24.40;99.90;;;;;;5031012;28;20050;-67
2022/02/23 04:57:05;;;;;;;8.10;0.82;;;24.20;99.90;;;;;;5036311;28;20021;-67
2022/02/23 04:59:33;;;;;;;5.18;1.13;;;24.20;99.90;;;;;;5038952;28;20033;-67
2022/02/23 05:02:00;;;;;;;6.85;0.80;;;24.10;99.90;;;;;;5028058;28;20026;-66
2022/02/23 05:04:27;;;;;;;3.92;0.47;;;24.10;99.90;;;;;;5030288;28;20032;-67
2022/02/23 05:06:54;;;;;;;3.95;0.55;;;23.80;99.90;;;;;;5030885;28;20104;-67
2022/02/23 05:09:21;;;;;;;5.40;0.85;;;23.50;99.90;;;;;;5031088;28;20481;-67
2022/02/23 05:11:49;;;;;;;5.00;1.23;;;23.30;99.90;;;;;;5027574;28;20061;-66
2022/02/23 05:14:16;;;;;;;7.03;0.82;;;23.20;99.90;;;;;;5031249;28;20020;-67
2022/02/23 05:16:43;;;;;;;5.47;1.20;;;23.00;99.90;;;;;;5028850;28;20018;-67
2022/02/23 05:19:10;;;;;;;5.63;1.00;;;23.00;99.90;;;;;;5012069;28;20454;-67
2022/02/23 05:21:38;;;;;;;4.95;0.68;;;23.00;99.90;;;;;;5020298;28;20022;-66
2022/02/23 05:24:06;;;;;;;6.72;1.23;;;23.00;99.90;;;;;;5028798;28;20044;-66
2022/02/23 05:26:33;;;;;;;7.97;1.95;;;23.20;99.90;;;;;;5021329;28;20044;-67
2022/02/23 05:29:01;;;;;;;3.20;0.93;;;23.20;99.90;;;;;;5030794;28;20025;-66
2022/02/23 05:31:28;;;;;;;5.70;0.90;;;23.20;99.90;;;;;;5031268;28;20029;-66
2022/02/23 05:33:55;;;;;;;5.47;1.08;;;23.40;99.90;;;;;;5032044;28;20108;-66
2022/02/23 05:36:23;;;;;;;6.38;0.90;;;23.50;99.90;;;;;;5050715;28;20036;-66
2022/02/23 05:38:50;;;;;;;5.57;1.13;;;23.60;99.90;;;;;;5029287;28;20051;-67
2022/02/23 05:41:17;;;;;;;4.30;0.90;;;23.80;99.90;;;;;;5025652;28;20478;-67
2022/02/23 05:43:44;;;;;;;3.42;1.15;;;23.90;99.90;;;;;;5035684;28;20489;-66
2022/02/23 05:46:11;;;;;;;5.18;0.88;;;24.00;99.90;;;;;;5030898;28;20029;-66
2022/02/23 05:48:39;;;;;;;3.20;0.60;;;23.90;99.90;;;;;;5030654;28;20112;-65
2022/02/23 05:51:23;;;;;;;4.30;0.75;;;23.80;99.90;;;;;;5035071;28;20025;-65
2022/02/23 05:53:50;;;;;;;6.78;1.20;;;23.70;99.90;;;;;;5025458;28;20118;-65
2022/02/23 05:56:18;;;;;;;4.40;0.85;;;23.70;99.90;;;;;;5047071;28;20397;-65
2022/02/23 05:58:45;;;;;;;4.35;1.00;;;23.90;99.90;;;;;;5053569;28;20032;-66
2022/02/23 06:01:13;;;;;;;6.43;1.38;;;24.10;99.90;;;;;;5037723;28;20021;-66
2022/02/23 06:03:40;;;;;;;7.25;1.20;;;24.40;99.90;;;;;;5020705;28;20104;-66
2022/02/23 06:06:07;;;;;;;6.03;1.33;;;24.40;99.90;;;;;;5027920;28;20115;-66
2022/02/23 06:08:36;;;;;;;7.50;1.25;;;24.50;99.90;;;;;;5036765;28;20017;-66
2022/02/23 06:11:04;;;;;;;6.55;0.90;;;24.50;99.90;;;;;;5057347;28;20067;-66
2022/02/23 06:13:32;;;;;;;7.97;1.23;;;24.40;99.90;;;;;;5055355;28;20037;-66
2022/02/23 06:16:01;;;;;;;7.57;1.23;;;24.30;99.90;;;;;;5028957;28;20034;-65
2022/02/23 06:18:31;;;;;;;8.98;1.15;;;24.20;99.90;;;;;;5017876;28;20030;-66
2022/02/23 06:20:59;;;;;;;10.68;1.92;;;24.20;99.90;;;;;;5009001;28;20044;-66
2022/02/23 06:23:27;;;;;;;10.23;1.45;;;24.10;99.90;;;;;;5037649;28;20492;-67
2022/02/23 06:25:54;;;;;;;8.45;2.05;;;24.00;99.90;;;;;;5036584;28;20061;-67
2022/02/23 06:28:22;;;;;;;11.07;2.13;;;23.80;99.90;;;;;;5037165;28;20061;-67
2022/02/23 06:30:49;;;;;;;12.73;2.22;;;23.80;99.90;;;;;;5018867;28;20060;-67
2022/02/23 06:33:22;;;;;;;7.88;1.77;;;23.80;99.90;;;;;;5034682;28;20132;-66
2022/02/23 06:35:50;;;;;;;17.73;2.57;;;23.70;99.90;;;;;;5038772;28;20068;-65
2022/02/23 06:38:18;;;;;;;14.48;4.60;;;23.50;99.90;;;;;;5037538;28;20129;-66
2022/02/23 06:40:47;;;;;;;7.40;1.50;;;23.50;99.90;;;;;;5036885;28;20040;-65
2022/02/23 06:43:16;;;;;;;7.70;1.40;;;23.00;99.90;;;;;;5035761;28;20587;-66
2022/02/23 06:45:49;;;;;;;6.15;1.48;;;23.00;99.90;;;;;;5035936;28;20544;-66
2022/02/23 06:48:19;;;;;;;6.95;1.20;;;23.00;99.90;;;;;;5020311;28;20386;-66
2022/02/23 06:50:47;;;;;;;6.60;1.40;;;23.00;99.90;;;;;;5016333;28;20052;-66
2022/02/23 06:53:16;;;;;;;10.52;2.13;;;23.10;99.90;;;;;;5031905;28;20034;-66
2022/02/23 06:55:45;;;;;;;8.77;1.75;;;23.20;99.90;;;;;;5034926;28;20124;-66
2022/02/23 06:58:12;;;;;;;14.82;3.03;;;23.30;99.90;;;;;;5031394;28;20029;-66
2022/02/23 07:00:41;;;;;;;9.60;2.60;;;23.40;99.90;;;;;;5023901;28;20108;-66
2022/02/23 07:03:09;;;;;;;14.90;2.13;;;23.40;99.90;;;;;;5035575;28;20500;-66
2022/02/23 07:05:36;;;;;;;12.35;2.03;;;23.20;99.90;;;;;;5050328;28;20029;-66
2022/02/23 07:08:07;;;;;;;9.77;2.17;;;23.20;99.90;;;;;;5048799;28;20107;-66
2022/02/23 07:10:37;;;;;;;12.82;2.67;;;23.20;99.90;;;;;;5025176;28;20021;-66
2022/02/23 07:13:06;;;;;;;11.43;2.15;;;23.20;99.90;;;;;;5030343;28;20029;-66
2022/02/23 07:15:37;;;;;;;12.88;1.92;;;23.20;99.90;;;;;;5035987;28;20021;-66
2022/02/23 07:18:05;;;;;;;14.48;2.80;;;23.20;99.90;;;;;;5030843;28;20021;-66
2022/02/23 07:20:32;;;;;;;13.10;3.38;;;23.00;99.90;;;;;;5013124;28;20029;-65
2022/02/23 07:22:59;;;;;;;20.15;2.97;;;23.10;99.90;;;;;;5029404;28;20029;-65
2022/02/23 07:25:28;;;;;;;10.85;3.13;;;23.00;99.90;;;;;;5031685;28;20620;-65
2022/02/23 07:27:55;;;;;;;15.70;2.58;;;23.10;99.90;;;;;;5029836;28;20026;-66
2022/02/23 07:30:22;;;;;;;12.20;2.63;;;23.20;99.90;;;;;;5028377;28;20026;-65
2022/02/23 07:32:50;;;;;;;14.30;2.92;;;23.20;99.90;;;;;;5032293;28;20371;-65
2022/02/23 07:35:18;;;;;;;17.05;2.20;;;23.20;99.90;;;;;;5033345;28;20457;-65
2022/02/23 07:37:48;;;;;;;12.43;2.17;;;23.20;99.90;;;;;;5051513;28;20045;-65
2022/02/23 07:40:23;;;;;;;11.95;2.65;;;23.20;99.90;;;;;;5045342;28;20022;-66
2022/02/23 07:42:51;;;;;;;13.32;1.95;;;23.10;99.90;;;;;;5033410;28;20057;-65
2022/02/23 07:45:18;;;;;;;12.05;2.65;;;23.10;99.90;;;;;;5033257;28;20461;-65
2022/02/23 07:47:46;;;;;;;17.25;2.00;;;23.00;99.90;;;;;;5032922;28;20425;-65
2022/02/23 07:50:15;;;;;;;11.55;1.83;;;23.00;99.90;;;;;;5033360;28;20028;-65
2022/02/23 07:52:43;;;;;;;15.57;2.00;;;23.00;99.90;;;;;;5030933;28;20481;-66
2022/02/23 07:55:10;;;;;;;11.68;1.58;;;23.10;99.90;;;;;;5029890;28;20049;-66
2022/02/23 07:57:38;;;;;;;10.73;1.20;;;23.10;99.90;;;;;;5031118;28;20029;-66
2022/02/23 08:00:09;;;;;;;9.82;1.38;;;23.10;99.90;;;;;;5013055;28;20063;-66
2022/02/23 08:02:37;;;;;;;12.63;1.50;;;23.10;99.90;;;;;;5030851;28;20473;-66
2022/02/23 08:05:06;;;;;;;16.27;2.33;;;23.10;99.90;;;;;;5028932;28;20405;-66
2022/02/23 08:07:34;;;;;;;12.40;1.77;;;23.10;99.90;;;;;;5032517;28;20397;-66
2022/02/23 08:10:01;;;;;;;12.80;1.70;;;23.20;99.90;;;;;;5029854;28;20056;-66
2022/02/23 08:12:28;;;;;;;8.98;1.40;;;23.20;99.90;;;;;;5030964;28;20432;-66
2022/02/23 08:14:56;;;;;;;10.68;1.83;;;23.20;99.90;;;;;;5031899;28;20022;-66
2022/02/23 08:20:10;;;;;;;10.43;2.08;;;23.30;99.90;;;;;;5031000;28;20495;-66
2022/02/23 08:22:37;;;;;;;9.45;1.90;;;23.30;99.90;;;;;;5031418;28;20033;-66
2022/02/23 08:25:06;;;;;;;13.07;1.98;;;23.30;99.90;;;;;;5031133;28;20104;-66
2022/02/23 08:27:35;;;;;;;16.50;3.00;;;23.30;99.90;;;;;;5032034;28;20033;-66
2022/02/23 08:30:05;;;;;;;13.43;2.60;;;23.30;99.90;;;;;;5034363;28;20053;-66
2022/02/23 08:32:32;;;;;;;12.45;2.17;;;23.30;99.90;;;;;;5031331;28;20025;-67
2022/02/23 08:34:59;;;;;;;9.23;1.92;;;23.30;99.90;;;;;;5031254;28;20033;-66
2022/02/23 08:37:27;;;;;;;14.00;2.95;;;23.30;99.90;;;;;;5032116;28;20033;-66
2022/02/23 08:39:54;;;;;;;11.18;1.92;;;23.20;99.90;;;;;;5032662;28;20035;-66
2022/02/23 08:42:22;;;;;;;13.23;2.90;;;23.20;99.90;;;;;;5030572;28;20054;-67
2022/02/23 08:44:49;;;;;;;15.65;2.47;;;23.20;99.90;;;;;;5032391;28;20472;-67
2022/02/23 08:47:18;;;;;;;17.17;3.40;;;23.20;99.90;;;;;;5031753;28;20021;-67
2022/02/23 08:49:46;;;;;;;10.75;1.80;;;23.20;99.90;;;;;;5029446;28;20117;-66
2022/02/23 08:52:13;;;;;;;11.02;2.20;;;23.10;99.90;;;;;;5031676;28;20033;-67
2022/02/23 08:54:42;;;;;;;12.90;1.90;;;23.10;99.90;;;;;;5032319;28;20064;-67
2022/02/23 08:57:09;;;;;;;13.65;2.17;;;23.10;99.90;;;;;;5031481;28;20030;-67
2022/02/23 08:59:37;;;;;;;13.50;2.22;;;23.00;99.90;;;;;;5031132;28;20029;-66
2022/02/23 09:02:05;;;;;;;9.18;2.42;;;23.10;99.90;;;;;;5031664;28;20029;-67
2022/02/23 09:04:32;;;;;;;11.00;2.08;;;23.10;99.90;;;;;;5031370;28;20037;-67
2022/02/23 09:07:00;;;;;;;13.30;2.20;;;23.10;99.90;;;;;;5030350;28;20033;-67
2022/02/23 09:09:27;;;;;;;10.88;1.73;;;23.00;99.90;;;;;;5013609;28;20053;-66
2022/02/23 09:11:54;;;;;;;6.20;1.10;;;23.00;99.90;;;;;;5032423;28;20021;-67
2022/02/23 09:14:21;;;;;;;14.70;2.30;;;23.10;99.90;;;;;;5031641;28;20445;-66
2022/02/23 09:16:49;;;;;;;9.40;1.85;;;23.00;99.90;;;;;;5032595;28;20056;-66
2022/02/23 09:19:17;;;;;;;11.43;2.08;;;23.10;99.90;;;;;;5034879;28;20096;-66
2022/02/23 09:21:44;;;;;;;11.05;2.47;;;23.10;99.90;;;;;;5035261;28;20025;-66
2022/02/23 09:24:11;;;;;;;10.07;2.22;;;23.10;99.90;;;;;;5029405;28;20084;-67
2022/02/23 09:26:39;;;;;;;10.13;1.80;;;23.20;99.90;;;;;;5037015;28;20021;-66
2022/02/23 09:29:06;;;;;;;15.68;2.58;;;23.20;99.90;;;;;;5036573;28;20076;-66
2022/02/23 09:31:36;;;;;;;10.48;1.77;;;23.20;99.90;;;;;;5036942;28;20033;-67
2022/02/23 09:34:03;;;;;;;9.48;2.05;;;23.20;99.90;;;;;;5037292;28;20044;-66
2022/02/23 09:36:30;;;;;;;13.23;3.05;;;23.20;99.90;;;;;;5030496;28;20022;-66
2022/02/23 09:38:58;;;;;;;15.98;2.70;;;23.10;99.90;;;;;;5032806;28;20477;-66
2022/02/23 09:41:25;;;;;;;10.48;1.63;;;23.20;99.90;;;;;;5035586;28;20029;-66
2022/02/23 09:43:54;;;;;;;16.52;2.33;;;23.10;99.90;;;;;;5037246;28;20081;-66
2022/02/23 09:46:25;;;;;;;15.45;2.42;;;23.20;99.90;;;;;;5036834;28;20397;-66
2022/02/23 09:48:54;;;;;;;9.48;2.55;;;23.10;99.90;;;;;;5036418;28;20083;-66
2022/02/23 09:51:22;;;;;;;10.48;1.75;;;23.10;99.90;;;;;;5036214;28;20475;-67
2022/02/23 09:53:55;;;;;;;12.02;1.88;;;23.20;99.90;;;;;;5036983;28;20455;-66
2022/02/23 09:56:23;;;;;;;15.48;1.98;;;23.20;99.90;;;;;;5030807;28;20401;-66
2022/02/23 09:58:53;;;;;;;13.07;2.55;;;23.20;99.90;;;;;;5036435;28;20018;-66
2022/02/23 10:01:25;;;;;;;22.75;2.75;;;23.20;99.90;;;;;;5037089;28;20478;-66
2022/02/23 10:03:55;;;;;;;11.70;1.85;;;23.20;99.90;;;;;;5036570;28;20072;-66
2022/02/23 10:06:31;;;;;;;16.33;2.33;;;23.20;99.90;;;;;;5018238;28;20049;-66
2022/02/23 10:09:09;;;;;;;13.57;1.90;;;23.20;99.90;;;;;;5031682;28;20022;-66
2022/02/23 10:11:38;;;;;;;14.40;2.13;;;23.20;99.90;;;;;;5032803;28;20029;-66
2022/02/23 10:14:07;;;;;;;10.60;1.95;;;23.30;99.90;;;;;;5034468;28;20029;-66
2022/02/23 10:16:39;;;;;;;10.88;2.03;;;23.30;99.90;;;;;;5033286;28;20014;-66
2022/02/23 10:19:19;;;;;;;12.52;2.08;;;23.30;99.90;;;;;;5034375;28;20489;-66
2022/02/23 10:22:00;;;;;;;12.07;1.80;;;23.30;99.90;;;;;;5024241;28;20028;-66
2022/02/23 10:24:39;;;;;;;10.82;2.05;;;23.30;99.90;;;;;;5035751;28;20037;-66
2022/02/23 10:27:09;;;;;;;14.27;2.22;;;23.30;99.90;;;;;;5031684;28;20488;-66
2022/02/23 10:29:49;;;;;;;12.82;1.92;;;23.20;99.90;;;;;;5031789;28;20037;-66
2022/02/23 10:32:16;;;;;;;15.05;2.17;;;23.20;99.90;;;;;;5026450;28;20087;-66
2022/02/23 10:34:48;;;;;;;13.55;2.47;;;23.10;99.90;;;;;;5031964;28;20025;-67
2022/02/23 10:37:21;;;;;;;13.55;2.05;;;23.10;99.90;;;;;;5029643;28;20034;-65
2022/02/23 10:39:50;;;;;;;12.75;1.98;;;23.10;99.90;;;;;;5033376;28;20053;-65
2022/02/23 10:42:26;;;;;;;10.65;2.15;;;23.10;99.90;;;;;;5014831;28;20508;-66
2022/02/23 10:44:56;;;;;;;16.92;2.95;;;23.10;99.90;;;;;;5034042;28;20124;-65
2022/02/23 10:47:39;;;;;;;14.57;2.38;;;23.00;99.90;;;;;;5008466;28;20553;-65
2022/02/23 10:50:26;;;;;;;12.65;2.25;;;23.00;99.90;;;;;;5031549;28;20021;-67
2022/02/23 10:52:59;;;;;;;14.38;1.95;;;23.00;99.90;;;;;;5034195;28;20072;-67
2022/02/23 10:55:36;;;;;;;16.95;2.45;;;23.00;99.90;;;;;;5033525;28;20575;-67
2022/02/23 10:58:06;;;;;;;10.43;1.92;;;23.00;99.90;;;;;;5029424;28;20104;-66
2022/02/23 11:00:35;;;;;;;9.80;2.08;;;23.00;99.90;;;;;;5032562;28;20121;-66
2022/02/23 11:03:04;;;;;;;14.77;2.72;;;23.10;99.90;;;;;;5039412;28;20021;-66
2022/02/23 11:05:33;;;;;;;18.02;2.65;;;23.00;99.90;;;;;;5041190;28;20069;-66
2022/02/23 11:08:04;;;;;;;17.20;2.53;;;23.00;99.90;;;;;;5035352;28;20423;-66
2022/02/23 11:10:32;;;;;;;10.57;2.05;;;22.90;99.90;;;;;;5034525;28;20105;-66
2022/02/23 11:13:01;;;;;;;9.93;1.17;;;22.90;99.90;;;;;;5032758;28;20056;-66
2022/02/23 11:15:33;;;;;;;9.38;1.83;;;22.80;99.90;;;;;;5033413;28;20033;-66
2022/02/23 11:18:02;;;;;;;11.02;1.75;;;22.90;99.90;;;;;;5033846;28;20477;-66
2022/02/23 11:20:32;;;;;;;14.63;2.13;;;22.80;99.90;;;;;;5034888;28;20029;-66
2022/02/23 11:23:04;;;;;;;14.27;2.08;;;22.90;99.90;;;;;;5027641;28;20025;-66
2022/02/23 11:25:33;;;;;;;8.77;1.83;;;23.00;99.90;;;;;;5032555;28;20046;-66
2022/02/23 11:28:23;;;;;;;15.98;1.73;;;22.80;99.90;;;;;;5031760;28;20338;-66
2022/02/23 11:31:04;;;;;;;17.02;2.97;;;22.60;99.90;;;;;;5012995;28;20047;-66
2022/02/23 11:33:53;;;;;;;19.52;2.70;;;22.60;99.90;;;;;;5031655;28;20098;-65
2022/02/23 11:36:25;;;;;;;17.30;2.60;;;22.60;99.90;;;;;;5029287;28;20072;-65
2022/02/23 11:38:53;;;;;;;12.30;2.00;;;22.70;99.90;;;;;;5035888;28;20080;-65
2022/02/23 11:41:31;;;;;;;13.43;2.22;;;22.60;99.90;;;;;;5032944;28;20029;-65
2022/02/23 11:44:18;;;;;;;13.65;2.05;;;22.50;99.90;;;;;;5028552;28;20034;-66
2022/02/23 11:46:54;;;;;;;13.27;1.75;;;22.40;99.90;;;;;;5018076;28;20077;-66
2022/02/23 11:49:30;;;;;;;8.23;1.23;;;22.30;99.90;;;;;;5025164;28;20113;-66
2022/02/23 11:52:16;;;;;;;10.98;1.52;;;22.30;99.90;;;;;;5029727;28;20033;-67
2022/02/23 11:55:10;;;;;;;16.08;2.30;;;22.30;99.90;;;;;;5032906;28;20136;-67
2022/02/23 11:57:42;;;;;;;9.05;1.45;;;22.30;99.90;;;;;;5006829;28;20044;-67
2022/02/23 12:00:34;;;;;;;14.73;2.08;;;22.30;99.90;;;;;;5015118;28;20034;-67
2022/02/23 12:03:09;;;;;;;5.68;1.05;;;22.30;99.90;;;;;;5023253;28;20128;-66
2022/02/23 12:05:41;;;;;;;10.32;1.95;;;22.30;99.90;;;;;;5032383;28;20037;-67
2022/02/23 12:08:34;;;;;;;10.35;1.63;;;22.20;99.90;;;;;;5031512;28;20029;-66
2022/02/23 12:11:15;;;;;;;8.65;1.30;;;22.20;99.90;;;;;;5034273;28;20022;-66
2022/02/23 12:13:46;;;;;;;8.60;1.48;;;22.10;99.90;;;;;;5036985;28;20084;-67
2022/02/23 12:16:30;;;;;;;10.20;1.90;;;22.10;99.90;;;;;;5028433;28;20026;-66
2022/02/23 12:19:03;;;;;;;7.35;0.88;;;22.10;99.90;;;;;;5023531;28;20080;-66
2022/02/23 12:21:47;;;;;;;5.35;1.02;;;22.10;99.90;;;;;;5031508;28;20033;-67
2022/02/23 12:24:19;;;;;;;4.43;0.80;;;22.00;99.90;;;;;;5028261;28;20037;-67
2022/02/23 12:26:59;;;;;;;6.95;0.98;;;21.90;99.90;;;;;;5019800;28;20025;-66
2022/02/23 12:29:29;;;;;;;7.85;1.30;;;21.80;99.90;;;;;;5031521;28;20378;-66
2022/02/23 12:32:04;;;;;;;3.83;0.50;;;21.70;99.90;;;;;;5031418;28;20048;-66
2022/02/23 12:34:36;;;;;;;7.05;1.10;;;21.70;99.90;;;;;;5026271;28;20455;-67
2022/02/23 12:37:05;;;;;;;5.72;1.10;;;21.60;99.90;;;;;;5028007;28;20027;-67
2022/02/23 12:39:35;;;;;;;7.00;1.40;;;21.50;99.90;;;;;;5040595;28;20018;-66
2022/02/23 12:42:06;;;;;;;5.47;1.00;;;21.60;99.90;;;;;;5036126;28;20025;-66
2022/02/23 12:44:37;;;;;;;4.97;1.02;;;21.50;99.90;;;;;;5033298;28;20033;-67
2022/02/23 12:47:09;;;;;;;6.55;1.10;;;21.50;99.90;;;;;;5032264;28;20046;-67
2022/02/23 12:49:37;;;;;;;5.35;0.88;;;21.50;99.90;;;;;;5032878;28;20044;-67
2022/02/23 12:52:06;;;;;;;6.82;0.85;;;21.50;99.90;;;;;;5032120;28;20025;-66
2022/02/23 12:54:34;;;;;;;11.77;2.65;;;21.50;99.90;;;;;;5036041;28;20128;-67
2022/02/23 12:57:03;;;;;;;6.05;1.05;;;21.50;99.90;;;;;;5035374;28;20033;-67